sensor_id;sensor_type;location;lat;lon;timestamp;temperature;humidity
66740;DHT22;53653;52.188;8.602;2023-07-13T00:01:47;17.75;71.89
66740;DHT22;53653;52.188;8.602;2023-07-13T00:04:16;17.78;71.73
66740;DHT22;53653;52.188;8.602;2023-07-13T00:06:43;17.81;71.55
66740;DHT22;53653;52.188;8.602;2023-07-13T00:09:14;17.72;71.84
66740;DHT22;53653;52.188;8.602;2023-07-13T00:11:40;17.72;71.95
66740;DHT22;53653;52.188;8.602;2023-07-13T00:14:06;17.65;72.09
66740;DHT22;53653;52.188;8.602;2023-07-13T00:16:37;17.54;72.60
66740;DHT22;53653;52.188;8.602;2023-07-13T00:19:03;17.52;72.61
66740;DHT22;53653;52.188;8.602;2023-07-13T00:21:29;17.49;72.71
66740;DHT22;53653;52.188;8.602;2023-07-13T00:23:54;17.59;72.21
66740;DHT22;53653;52.188;8.602;2023-07-13T00:26:20;17.52;72.59
66740;DHT22;53653;52.188;8.602;2023-07-13T00:28:45;17.54;72.46
66740;DHT22;53653;52.188;8.602;2023-07-13T00:31:12;17.52;72.59
66740;DHT22;53653;52.188;8.602;2023-07-13T00:33:40;17.45;72.71
66740;DHT22;53653;52.188;8.602;2023-07-13T00:36:05;17.37;73.17
66740;DHT22;53653;52.188;8.602;2023-07-13T00:38:31;17.31;73.37
66740;DHT22;53653;52.188;8.602;2023-07-13T00:40:57;17.28;73.64
66740;DHT22;53653;52.188;8.602;2023-07-13T00:43:25;17.24;73.80
66740;DHT22;53653;52.188;8.602;2023-07-13T00:48:22;17.23;73.55
66740;DHT22;53653;52.188;8.602;2023-07-13T00:50:52;17.20;73.74
66740;DHT22;53653;52.188;8.602;2023-07-13T00:53:19;17.21;73.70
66740;DHT22;53653;52.188;8.602;2023-07-13T00:55:47;17.21;73.78
66740;DHT22;53653;52.188;8.602;2023-07-13T00:58:15;17.14;73.77
66740;DHT22;53653;52.188;8.602;2023-07-13T01:00:41;17.10;73.91
66740;DHT22;53653;52.188;8.602;2023-07-13T01:03:07;17.17;73.71
66740;DHT22;53653;52.188;8.602;2023-07-13T01:05:34;17.16;73.72
66740;DHT22;53653;52.188;8.602;2023-07-13T01:08:01;17.13;74.27
66740;DHT22;53653;52.188;8.602;2023-07-13T01:10:27;17.16;73.86
66740;DHT22;53653;52.188;8.602;2023-07-13T01:12:54;17.08;74.05
66740;DHT22;53653;52.188;8.602;2023-07-13T01:15:45;17.06;74.11
66740;DHT22;53653;52.188;8.602;2023-07-13T01:18:14;17.07;74.08
66740;DHT22;53653;52.188;8.602;2023-07-13T01:20:41;17.04;74.05
66740;DHT22;53653;52.188;8.602;2023-07-13T01:23:10;17.06;74.05
66740;DHT22;53653;52.188;8.602;2023-07-13T01:25:37;17.03;74.26
66740;DHT22;53653;52.188;8.602;2023-07-13T01:28:05;16.99;74.41
66740;DHT22;53653;52.188;8.602;2023-07-13T01:30:30;17.02;74.43
66740;DHT22;53653;52.188;8.602;2023-07-13T01:32:57;17.03;74.44
66740;DHT22;53653;52.188;8.602;2023-07-13T01:35:25;17.11;74.12
66740;DHT22;53653;52.188;8.602;2023-07-13T01:37:52;17.17;73.99
66740;DHT22;53653;52.188;8.602;2023-07-13T01:40:19;17.14;73.93
66740;DHT22;53653;52.188;8.602;2023-07-13T01:42:45;17.24;73.77
66740;DHT22;53653;52.188;8.602;2023-07-13T01:45:11;17.23;73.86
66740;DHT22;53653;52.188;8.602;2023-07-13T01:47:36;17.30;73.71
66740;DHT22;53653;52.188;8.602;2023-07-13T01:50:03;17.30;74.36
66740;DHT22;53653;52.188;8.602;2023-07-13T01:52:28;17.31;74.99
66740;DHT22;53653;52.188;8.602;2023-07-13T01:54:54;17.24;75.41
66740;DHT22;53653;52.188;8.602;2023-07-13T01:57:19;17.27;75.90
66740;DHT22;53653;52.188;8.602;2023-07-13T01:59:45;17.31;76.01
66740;DHT22;53653;52.188;8.602;2023-07-13T02:02:10;17.32;76.27
66740;DHT22;53653;52.188;8.602;2023-07-13T02:04:36;17.27;76.36
66740;DHT22;53653;52.188;8.602;2023-07-13T02:07:01;17.20;76.63
66740;DHT22;53653;52.188;8.602;2023-07-13T02:09:28;17.14;77.05
66740;DHT22;53653;52.188;8.602;2023-07-13T02:11:53;17.02;77.57
66740;DHT22;53653;52.188;8.602;2023-07-13T02:14:18;16.90;78.22
66740;DHT22;53653;52.188;8.602;2023-07-13T02:16:44;16.84;78.52
66740;DHT22;53653;52.188;8.602;2023-07-13T02:19:09;16.83;78.84
66740;DHT22;53653;52.188;8.602;2023-07-13T02:21:35;16.83;78.90
66740;DHT22;53653;52.188;8.602;2023-07-13T02:24:01;16.80;78.80
66740;DHT22;53653;52.188;8.602;2023-07-13T02:26:27;16.77;78.99
66740;DHT22;53653;52.188;8.602;2023-07-13T02:28:53;16.75;79.02
66740;DHT22;53653;52.188;8.602;2023-07-13T02:31:19;16.72;79.26
66740;DHT22;53653;52.188;8.602;2023-07-13T02:33:45;16.62;79.47
66740;DHT22;53653;52.188;8.602;2023-07-13T02:36:12;16.59;79.49
66740;DHT22;53653;52.188;8.602;2023-07-13T02:38:39;16.55;79.16
66740;DHT22;53653;52.188;8.602;2023-07-13T02:41:05;16.60;78.90
66740;DHT22;53653;52.188;8.602;2023-07-13T02:43:31;16.62;78.85
66740;DHT22;53653;52.188;8.602;2023-07-13T02:45:59;16.60;78.90
66740;DHT22;53653;52.188;8.602;2023-07-13T02:48:29;16.60;78.88
66740;DHT22;53653;52.188;8.602;2023-07-13T02:50:56;16.53;78.68
66740;DHT22;53653;52.188;8.602;2023-07-13T02:53:21;16.52;78.90
66740;DHT22;53653;52.188;8.602;2023-07-13T02:55:47;16.48;78.88
66740;DHT22;53653;52.188;8.602;2023-07-13T02:58:13;16.58;78.30
66740;DHT22;53653;52.188;8.602;2023-07-13T03:00:46;16.56;78.33
66740;DHT22;53653;52.188;8.602;2023-07-13T03:03:13;16.55;78.32
66740;DHT22;53653;52.188;8.602;2023-07-13T03:05:41;16.58;78.12
66740;DHT22;53653;52.188;8.602;2023-07-13T03:08:08;16.62;77.72
66740;DHT22;53653;52.188;8.602;2023-07-13T03:10:34;16.53;77.85
66740;DHT22;53653;52.188;8.602;2023-07-13T03:13:00;16.55;77.73
66740;DHT22;53653;52.188;8.602;2023-07-13T03:15:27;16.53;77.77
66740;DHT22;53653;52.188;8.602;2023-07-13T03:17:54;16.45;77.97
66740;DHT22;53653;52.188;8.602;2023-07-13T03:20:20;16.44;78.02
66740;DHT22;53653;52.188;8.602;2023-07-13T03:22:45;16.47;77.95
66740;DHT22;53653;52.188;8.602;2023-07-13T03:25:11;16.45;77.89
66740;DHT22;53653;52.188;8.602;2023-07-13T03:27:37;16.35;78.21
66740;DHT22;53653;52.188;8.602;2023-07-13T03:30:06;16.36;78.29
66740;DHT22;53653;52.188;8.602;2023-07-13T03:32:32;16.36;78.27
66740;DHT22;53653;52.188;8.602;2023-07-13T03:34:58;16.36;78.22
66740;DHT22;53653;52.188;8.602;2023-07-13T03:37:23;16.36;78.05
66740;DHT22;53653;52.188;8.602;2023-07-13T03:39:50;16.29;78.17
66740;DHT22;53653;52.188;8.602;2023-07-13T03:42:17;16.28;78.26
66740;DHT22;53653;52.188;8.602;2023-07-13T03:44:43;16.28;78.08
66740;DHT22;53653;52.188;8.602;2023-07-13T03:47:15;16.26;78.31
66740;DHT22;53653;52.188;8.602;2023-07-13T03:49:43;16.21;78.64
66740;DHT22;53653;52.188;8.602;2023-07-13T03:52:08;16.26;78.34
66740;DHT22;53653;52.188;8.602;2023-07-13T03:54:34;16.24;78.30
66740;DHT22;53653;52.188;8.602;2023-07-13T03:57:00;16.25;78.32
66740;DHT22;53653;52.188;8.602;2023-07-13T03:59:27;16.39;77.52
66740;DHT22;53653;52.188;8.602;2023-07-13T04:01:52;16.41;77.65
66740;DHT22;53653;52.188;8.602;2023-07-13T04:04:18;16.48;77.41
66740;DHT22;53653;52.188;8.602;2023-07-13T04:06:44;16.41;77.70
66740;DHT22;53653;52.188;8.602;2023-07-13T04:09:11;16.49;77.34
66740;DHT22;53653;52.188;8.602;2023-07-13T04:11:36;16.58;77.20
66740;DHT22;53653;52.188;8.602;2023-07-13T04:14:02;16.59;77.15
66740;DHT22;53653;52.188;8.602;2023-07-13T04:16:28;16.90;76.28
66740;DHT22;53653;52.188;8.602;2023-07-13T04:18:54;17.37;74.87
66740;DHT22;53653;52.188;8.602;2023-07-13T04:21:24;17.66;73.87
66740;DHT22;53653;52.188;8.602;2023-07-13T04:23:49;17.89;73.10
66740;DHT22;53653;52.188;8.602;2023-07-13T04:26:15;18.07;72.53
66740;DHT22;53653;52.188;8.602;2023-07-13T04:28:40;17.99;72.44
66740;DHT22;53653;52.188;8.602;2023-07-13T04:31:06;17.64;73.71
66740;DHT22;53653;52.188;8.602;2023-07-13T04:33:31;17.41;74.52
66740;DHT22;53653;52.188;8.602;2023-07-13T04:35:57;17.13;75.23
66740;DHT22;53653;52.188;8.602;2023-07-13T04:38:25;17.07;75.25
66740;DHT22;53653;52.188;8.602;2023-07-13T04:40:54;16.97;75.40
66740;DHT22;53653;52.188;8.602;2023-07-13T04:43:19;16.91;75.27
66740;DHT22;53653;52.188;8.602;2023-07-13T04:45:45;16.79;75.29
66740;DHT22;53653;52.188;8.602;2023-07-13T04:48:10;16.84;75.34
66740;DHT22;53653;52.188;8.602;2023-07-13T04:50:37;16.90;74.81
66740;DHT22;53653;52.188;8.602;2023-07-13T04:53:02;16.99;74.26
66740;DHT22;53653;52.188;8.602;2023-07-13T04:55:30;17.13;73.89
66740;DHT22;53653;52.188;8.602;2023-07-13T04:57:56;17.18;73.82
66740;DHT22;53653;52.188;8.602;2023-07-13T05:00:24;17.31;72.91
66740;DHT22;53653;52.188;8.602;2023-07-13T05:02:50;17.34;72.65
66740;DHT22;53653;52.188;8.602;2023-07-13T05:05:16;17.45;72.70
66740;DHT22;53653;52.188;8.602;2023-07-13T05:07:41;17.51;72.00
66740;DHT22;53653;52.188;8.602;2023-07-13T05:10:07;17.61;71.43
66740;DHT22;53653;52.188;8.602;2023-07-13T05:12:33;17.61;71.79
66740;DHT22;53653;52.188;8.602;2023-07-13T05:14:58;17.62;71.15
66740;DHT22;53653;52.188;8.602;2023-07-13T05:17:24;17.66;71.28
66740;DHT22;53653;52.188;8.602;2023-07-13T05:19:49;17.64;71.51
66740;DHT22;53653;52.188;8.602;2023-07-13T05:22:15;17.79;71.05
66740;DHT22;53653;52.188;8.602;2023-07-13T05:24:40;17.81;70.60
66740;DHT22;53653;52.188;8.602;2023-07-13T05:27:06;17.86;70.35
66740;DHT22;53653;52.188;8.602;2023-07-13T05:29:31;17.93;70.06
66740;DHT22;53653;52.188;8.602;2023-07-13T05:31:56;17.97;69.48
66740;DHT22;53653;52.188;8.602;2023-07-13T05:34:22;17.95;69.37
66740;DHT22;53653;52.188;8.602;2023-07-13T05:36:49;17.95;69.64
66740;DHT22;53653;52.188;8.602;2023-07-13T05:39:15;18.06;69.35
66740;DHT22;53653;52.188;8.602;2023-07-13T05:41:41;18.06;69.12
66740;DHT22;53653;52.188;8.602;2023-07-13T05:44:06;18.12;68.87
66740;DHT22;53653;52.188;8.602;2023-07-13T05:46:32;18.23;68.99
66740;DHT22;53653;52.188;8.602;2023-07-13T05:48:57;18.43;68.29
66740;DHT22;53653;52.188;8.602;2023-07-13T05:51:23;18.50;68.33
66740;DHT22;53653;52.188;8.602;2023-07-13T05:53:48;18.55;67.60
66740;DHT22;53653;52.188;8.602;2023-07-13T05:56:14;18.60;67.65
66740;DHT22;53653;52.188;8.602;2023-07-13T05:58:39;18.54;68.06
66740;DHT22;53653;52.188;8.602;2023-07-13T06:01:08;18.45;68.08
66740;DHT22;53653;52.188;8.602;2023-07-13T06:03:35;18.48;68.09
66740;DHT22;53653;52.188;8.602;2023-07-13T06:06:01;18.76;67.97
66740;DHT22;53653;52.188;8.602;2023-07-13T06:08:27;18.61;67.77
66740;DHT22;53653;52.188;8.602;2023-07-13T06:10:53;18.53;68.27
66740;DHT22;53653;52.188;8.602;2023-07-13T06:13:18;18.57;68.03
66740;DHT22;53653;52.188;8.602;2023-07-13T06:15:53;18.60;68.22
66740;DHT22;53653;52.188;8.602;2023-07-13T06:18:18;18.61;68.29
66740;DHT22;53653;52.188;8.602;2023-07-13T06:20:44;18.82;68.32
66740;DHT22;53653;52.188;8.602;2023-07-13T06:23:09;18.94;67.28
66740;DHT22;53653;52.188;8.602;2023-07-13T06:25:34;19.15;66.75
66740;DHT22;53653;52.188;8.602;2023-07-13T06:28:00;19.06;67.07
66740;DHT22;53653;52.188;8.602;2023-07-13T06:30:26;19.30;66.59
66740;DHT22;53653;52.188;8.602;2023-07-13T06:32:52;19.20;66.85
66740;DHT22;53653;52.188;8.602;2023-07-13T06:35:17;19.08;67.41
66740;DHT22;53653;52.188;8.602;2023-07-13T06:37:43;19.13;67.66
66740;DHT22;53653;52.188;8.602;2023-07-13T06:40:09;19.03;67.74
66740;DHT22;53653;52.188;8.602;2023-07-13T06:42:34;19.16;68.09
66740;DHT22;53653;52.188;8.602;2023-07-13T06:45:00;19.20;67.86
66740;DHT22;53653;52.188;8.602;2023-07-13T06:47:25;19.43;67.52
66740;DHT22;53653;52.188;8.602;2023-07-13T06:49:51;19.66;66.60
66740;DHT22;53653;52.188;8.602;2023-07-13T06:52:17;19.66;66.90
66740;DHT22;53653;52.188;8.602;2023-07-13T06:54:42;19.74;66.59
66740;DHT22;53653;52.188;8.602;2023-07-13T06:57:08;20.11;65.66
66740;DHT22;53653;52.188;8.602;2023-07-13T06:59:34;19.99;65.80
66740;DHT22;53653;52.188;8.602;2023-07-13T07:01:59;20.26;65.71
66740;DHT22;53653;52.188;8.602;2023-07-13T07:04:25;20.35;65.64
66740;DHT22;53653;52.188;8.602;2023-07-13T07:06:52;20.47;65.83
66740;DHT22;53653;52.188;8.602;2023-07-13T07:09:17;20.04;66.67
66740;DHT22;53653;52.188;8.602;2023-07-13T07:11:43;20.19;66.81
66740;DHT22;53653;52.188;8.602;2023-07-13T07:14:09;20.04;67.16
66740;DHT22;53653;52.188;8.602;2023-07-13T07:16:35;19.89;68.27
66740;DHT22;53653;52.188;8.602;2023-07-13T07:19:00;20.05;67.26
66740;DHT22;53653;52.188;8.602;2023-07-13T07:21:26;20.04;66.84
66740;DHT22;53653;52.188;8.602;2023-07-13T07:23:52;20.11;66.25
66740;DHT22;53653;52.188;8.602;2023-07-13T07:26:18;20.04;67.21
66740;DHT22;53653;52.188;8.602;2023-07-13T07:28:44;19.99;67.37
66740;DHT22;53653;52.188;8.602;2023-07-13T07:31:10;19.77;67.67
66740;DHT22;53653;52.188;8.602;2023-07-13T07:33:35;20.09;67.14
66740;DHT22;53653;52.188;8.602;2023-07-13T07:36:01;20.42;66.84
66740;DHT22;53653;52.188;8.602;2023-07-13T07:38:30;20.35;66.40
66740;DHT22;53653;52.188;8.602;2023-07-13T07:40:56;20.52;65.93
66740;DHT22;53653;52.188;8.602;2023-07-13T07:43:22;20.26;66.48
66740;DHT22;53653;52.188;8.602;2023-07-13T07:45:47;20.67;65.53
66740;DHT22;53653;52.188;8.602;2023-07-13T07:48:13;20.35;66.07
66740;DHT22;53653;52.188;8.602;2023-07-13T07:50:39;20.55;66.13
66740;DHT22;53653;52.188;8.602;2023-07-13T07:53:06;20.97;65.02
66740;DHT22;53653;52.188;8.602;2023-07-13T07:55:36;21.31;63.44
66740;DHT22;53653;52.188;8.602;2023-07-13T07:58:01;21.30;63.38
66740;DHT22;53653;52.188;8.602;2023-07-13T08:00:27;20.98;64.03
66740;DHT22;53653;52.188;8.602;2023-07-13T08:02:56;21.18;63.88
66740;DHT22;53653;52.188;8.602;2023-07-13T08:05:22;21.63;63.27
66740;DHT22;53653;52.188;8.602;2023-07-13T08:07:47;21.14;63.28
66740;DHT22;53653;52.188;8.602;2023-07-13T08:10:13;21.41;62.91
66740;DHT22;53653;52.188;8.602;2023-07-13T08:12:39;21.80;61.94
66740;DHT22;53653;52.188;8.602;2023-07-13T08:15:06;21.37;62.67
66740;DHT22;53653;52.188;8.602;2023-07-13T08:17:32;21.01;63.11
66740;DHT22;53653;52.188;8.602;2023-07-13T08:19:58;21.04;63.20
66740;DHT22;53653;52.188;8.602;2023-07-13T08:22:23;21.28;63.18
66740;DHT22;53653;52.188;8.602;2023-07-13T08:24:49;21.59;62.08
66740;DHT22;53653;52.188;8.602;2023-07-13T08:27:25;21.41;61.85
66740;DHT22;53653;52.188;8.602;2023-07-13T08:29:51;21.99;60.39
66740;DHT22;53653;52.188;8.602;2023-07-13T08:32:18;21.97;60.54
66740;DHT22;53653;52.188;8.602;2023-07-13T08:34:44;22.11;59.43
66740;DHT22;53653;52.188;8.602;2023-07-13T08:37:09;22.33;59.41
66740;DHT22;53653;52.188;8.602;2023-07-13T08:39:35;22.52;58.24
66740;DHT22;53653;52.188;8.602;2023-07-13T08:44:55;22.43;58.89
66740;DHT22;53653;52.188;8.602;2023-07-13T08:47:23;22.44;58.87
66740;DHT22;53653;52.188;8.602;2023-07-13T08:49:49;22.22;59.00
66740;DHT22;53653;52.188;8.602;2023-07-13T08:52:33;22.67;57.93
66740;DHT22;53653;52.188;8.602;2023-07-13T08:55:09;22.61;57.36
66740;DHT22;53653;52.188;8.602;2023-07-13T08:57:38;22.86;57.50
66740;DHT22;53653;52.188;8.602;2023-07-13T09:00:10;22.91;55.94
66740;DHT22;53653;52.188;8.602;2023-07-13T09:02:45;22.37;57.60
66740;DHT22;53653;52.188;8.602;2023-07-13T09:05:18;22.38;57.50
66740;DHT22;53653;52.188;8.602;2023-07-13T09:10:47;22.68;56.11
66740;DHT22;53653;52.188;8.602;2023-07-13T09:13:39;22.51;56.09
66740;DHT22;53653;52.188;8.602;2023-07-13T09:16:07;22.85;54.99
66740;DHT22;53653;52.188;8.602;2023-07-13T09:18:39;23.06;53.71
66740;DHT22;53653;52.188;8.602;2023-07-13T09:21:12;23.27;53.20
66740;DHT22;53653;52.188;8.602;2023-07-13T09:23:39;23.44;53.25
66740;DHT22;53653;52.188;8.602;2023-07-13T09:26:06;23.53;53.76
66740;DHT22;53653;52.188;8.602;2023-07-13T09:28:46;23.44;53.71
66740;DHT22;53653;52.188;8.602;2023-07-13T09:31:16;23.85;52.93
66740;DHT22;53653;52.188;8.602;2023-07-13T09:33:43;23.77;53.13
66740;DHT22;53653;52.188;8.602;2023-07-13T09:36:25;23.31;53.95
66740;DHT22;53653;52.188;8.602;2023-07-13T09:44:38;23.95;52.36
66740;DHT22;53653;52.188;8.602;2023-07-13T09:50:01;23.63;52.49
66740;DHT22;53653;52.188;8.602;2023-07-13T09:52:29;23.68;52.60
66740;DHT22;53653;52.188;8.602;2023-07-13T09:55:04;24.18;52.30
66740;DHT22;53653;52.188;8.602;2023-07-13T09:57:30;24.23;51.62
66740;DHT22;53653;52.188;8.602;2023-07-13T09:59:56;24.36;49.64
66740;DHT22;53653;52.188;8.602;2023-07-13T10:02:33;24.49;49.39
66740;DHT22;53653;52.188;8.602;2023-07-13T10:05:05;24.77;49.52
66740;DHT22;53653;52.188;8.602;2023-07-13T10:07:31;24.29;50.46
66740;DHT22;53653;52.188;8.602;2023-07-13T10:09:59;24.29;48.50
66740;DHT22;53653;52.188;8.602;2023-07-13T10:12:29;23.47;50.67
66740;DHT22;53653;52.188;8.602;2023-07-13T10:14:58;23.36;50.69
66740;DHT22;53653;52.188;8.602;2023-07-13T10:17:29;23.36;51.02
66740;DHT22;53653;52.188;8.602;2023-07-13T10:20:03;24.05;50.14
66740;DHT22;53653;52.188;8.602;2023-07-13T10:25:16;22.84;51.85
66740;DHT22;53653;52.188;8.602;2023-07-13T10:27:42;22.78;52.64
66740;DHT22;53653;52.188;8.602;2023-07-13T10:32:46;22.78;53.49
66740;DHT22;53653;52.188;8.602;2023-07-13T10:35:15;22.78;53.63
66740;DHT22;53653;52.188;8.602;2023-07-13T10:37:49;22.57;53.67
66740;DHT22;53653;52.188;8.602;2023-07-13T10:40:29;23.10;52.34
66740;DHT22;53653;52.188;8.602;2023-07-13T10:42:58;23.82;51.17
66740;DHT22;53653;52.188;8.602;2023-07-13T10:45:24;23.95;49.87
66740;DHT22;53653;52.188;8.602;2023-07-13T10:47:53;23.78;50.10
66740;DHT22;53653;52.188;8.602;2023-07-13T10:50:25;24.30;49.71
66740;DHT22;53653;52.188;8.602;2023-07-13T10:52:54;24.57;48.44
66740;DHT22;53653;52.188;8.602;2023-07-13T10:55:41;24.76;47.84
66740;DHT22;53653;52.188;8.602;2023-07-13T10:58:41;25.00;47.91
66740;DHT22;53653;52.188;8.602;2023-07-13T11:01:13;24.19;49.52
66740;DHT22;53653;52.188;8.602;2023-07-13T11:03:58;23.63;50.79
66740;DHT22;53653;52.188;8.602;2023-07-13T11:09:34;23.63;50.54
66740;DHT22;53653;52.188;8.602;2023-07-13T11:19:54;23.91;51.55
66740;DHT22;53653;52.188;8.602;2023-07-13T11:22:43;23.91;50.87
66740;DHT22;53653;52.188;8.602;2023-07-13T11:25:25;23.92;50.94
66740;DHT22;53653;52.188;8.602;2023-07-13T11:35:37;24.40;49.98
66740;DHT22;53653;52.188;8.602;2023-07-13T11:38:34;24.26;50.06
66740;DHT22;53653;52.188;8.602;2023-07-13T11:41:04;23.89;51.62
66740;DHT22;53653;52.188;8.602;2023-07-13T11:43:30;23.77;51.78
66740;DHT22;53653;52.188;8.602;2023-07-13T11:45:56;23.97;51.36
66740;DHT22;53653;52.188;8.602;2023-07-13T11:48:25;24.05;51.51
66740;DHT22;53653;52.188;8.602;2023-07-13T11:51:03;23.82;51.03
66740;DHT22;53653;52.188;8.602;2023-07-13T11:53:45;24.40;49.92
66740;DHT22;53653;52.188;8.602;2023-07-13T11:56:11;24.56;48.96
66740;DHT22;53653;52.188;8.602;2023-07-13T11:58:36;24.92;48.47
66740;DHT22;53653;52.188;8.602;2023-07-13T12:01:03;25.14;47.80
66740;DHT22;53653;52.188;8.602;2023-07-13T12:03:33;24.88;47.54
66740;DHT22;53653;52.188;8.602;2023-07-13T12:06:06;24.28;49.06
66740;DHT22;53653;52.188;8.602;2023-07-13T12:08:44;24.55;48.74
66740;DHT22;53653;52.188;8.602;2023-07-13T12:11:16;24.95;47.56
66740;DHT22;53653;52.188;8.602;2023-07-13T12:13:44;24.48;47.79
66740;DHT22;53653;52.188;8.602;2023-07-13T12:16:28;24.80;48.05
66740;DHT22;53653;52.188;8.602;2023-07-13T12:18:55;25.41;46.74
66740;DHT22;53653;52.188;8.602;2023-07-13T12:21:27;25.34;46.09
66740;DHT22;53653;52.188;8.602;2023-07-13T12:23:55;25.45;46.43
66740;DHT22;53653;52.188;8.602;2023-07-13T12:26:20;25.46;45.88
66740;DHT22;53653;52.188;8.602;2023-07-13T12:28:49;25.42;45.57
66740;DHT22;53653;52.188;8.602;2023-07-13T12:31:45;25.18;45.59
66740;DHT22;53653;52.188;8.602;2023-07-13T12:34:20;25.38;45.10
66740;DHT22;53653;52.188;8.602;2023-07-13T12:36:51;25.22;44.99
66740;DHT22;53653;52.188;8.602;2023-07-13T12:39:26;25.00;45.27
66740;DHT22;53653;52.188;8.602;2023-07-13T12:41:53;25.28;46.16
66740;DHT22;53653;52.188;8.602;2023-07-13T12:44:40;25.37;44.29
66740;DHT22;53653;52.188;8.602;2023-07-13T12:47:11;25.01;45.02
66740;DHT22;53653;52.188;8.602;2023-07-13T12:49:41;24.73;45.88
66740;DHT22;53653;52.188;8.602;2023-07-13T12:52:20;24.39;47.27
66740;DHT22;53653;52.188;8.602;2023-07-13T12:55:05;24.64;47.70
66740;DHT22;53653;52.188;8.602;2023-07-13T12:57:31;24.77;46.81
66740;DHT22;53653;52.188;8.602;2023-07-13T12:59:57;24.74;46.78
66740;DHT22;53653;52.188;8.602;2023-07-13T13:02:29;24.69;44.97
66740;DHT22;53653;52.188;8.602;2023-07-13T13:04:56;25.08;44.26
66740;DHT22;53653;52.188;8.602;2023-07-13T13:07:23;25.14;43.90
66740;DHT22;53653;52.188;8.602;2023-07-13T13:09:49;24.92;44.24
66740;DHT22;53653;52.188;8.602;2023-07-13T13:12:14;24.86;45.13
66740;DHT22;53653;52.188;8.602;2023-07-13T13:14:40;24.70;44.48
66740;DHT22;53653;52.188;8.602;2023-07-13T13:17:29;25.12;44.67
66740;DHT22;53653;52.188;8.602;2023-07-13T13:19:55;25.52;44.45
66740;DHT22;53653;52.188;8.602;2023-07-13T13:22:22;25.32;44.08
66740;DHT22;53653;52.188;8.602;2023-07-13T13:24:48;24.84;43.95
66740;DHT22;53653;52.188;8.602;2023-07-13T13:27:18;24.23;45.95
66740;DHT22;53653;52.188;8.602;2023-07-13T13:29:45;23.34;51.08
66740;DHT22;53653;52.188;8.602;2023-07-13T13:32:13;22.59;53.65
66740;DHT22;53653;52.188;8.602;2023-07-13T13:34:39;22.14;54.74
66740;DHT22;53653;52.188;8.602;2023-07-13T13:37:15;21.72;56.12
66740;DHT22;53653;52.188;8.602;2023-07-13T13:39:43;20.70;61.24
66740;DHT22;53653;52.188;8.602;2023-07-13T13:42:10;20.08;63.12
66740;DHT22;53653;52.188;8.602;2023-07-13T13:44:35;19.71;64.99
66740;DHT22;53653;52.188;8.602;2023-07-13T13:47:01;19.43;66.31
66740;DHT22;53653;52.188;8.602;2023-07-13T13:49:29;19.02;69.43
66740;DHT22;53653;52.188;8.602;2023-07-13T13:51:55;18.88;75.07
66740;DHT22;53653;52.188;8.602;2023-07-13T13:54:23;18.69;76.43
66740;DHT22;53653;52.188;8.602;2023-07-13T13:56:50;18.58;76.41
66740;DHT22;53653;52.188;8.602;2023-07-13T13:59:17;18.48;76.95
66740;DHT22;53653;52.188;8.602;2023-07-13T14:01:45;18.18;82.06
66740;DHT22;53653;52.188;8.602;2023-07-13T14:04:29;18.23;77.92
66740;DHT22;53653;52.188;8.602;2023-07-13T14:06:54;18.47;79.59
66740;DHT22;53653;52.188;8.602;2023-07-13T14:09:20;18.60;79.73
66740;DHT22;53653;52.188;8.602;2023-07-13T14:11:48;18.37;78.84
66740;DHT22;53653;52.188;8.602;2023-07-13T14:14:17;18.88;80.45
66740;DHT22;53653;52.188;8.602;2023-07-13T14:16:44;19.39;78.80
66740;DHT22;53653;52.188;8.602;2023-07-13T14:19:12;19.31;74.50
66740;DHT22;53653;52.188;8.602;2023-07-13T14:21:39;19.56;73.92
66740;DHT22;53653;52.188;8.602;2023-07-13T14:24:05;19.78;73.84
66740;DHT22;53653;52.188;8.602;2023-07-13T14:26:41;19.97;72.40
66740;DHT22;53653;52.188;8.602;2023-07-13T14:29:16;20.08;72.75
66740;DHT22;53653;52.188;8.602;2023-07-13T14:31:43;20.12;70.81
66740;DHT22;53653;52.188;8.602;2023-07-13T14:34:11;19.89;71.67
66740;DHT22;53653;52.188;8.602;2023-07-13T14:36:48;19.64;72.30
66740;DHT22;53653;52.188;8.602;2023-07-13T14:39:17;19.50;73.90
66740;DHT22;53653;52.188;8.602;2023-07-13T14:41:44;19.31;75.47
66740;DHT22;53653;52.188;8.602;2023-07-13T14:44:15;19.06;76.66
66740;DHT22;53653;52.188;8.602;2023-07-13T14:46:41;18.81;78.08
66740;DHT22;53653;52.188;8.602;2023-07-13T14:49:43;18.37;80.47
66740;DHT22;53653;52.188;8.602;2023-07-13T14:52:15;18.06;80.51
66740;DHT22;53653;52.188;8.602;2023-07-13T14:54:41;17.68;79.16
66740;DHT22;53653;52.188;8.602;2023-07-13T14:57:13;17.49;80.02
66740;DHT22;53653;52.188;8.602;2023-07-13T14:59:39;17.45;80.83
66740;DHT22;53653;52.188;8.602;2023-07-13T15:02:15;17.47;81.00
66740;DHT22;53653;52.188;8.602;2023-07-13T15:04:41;17.42;80.62
66740;DHT22;53653;52.188;8.602;2023-07-13T15:07:09;17.42;80.98
66740;DHT22;53653;52.188;8.602;2023-07-13T15:09:35;17.42;81.88
66740;DHT22;53653;52.188;8.602;2023-07-13T15:12:01;17.31;81.77
66740;DHT22;53653;52.188;8.602;2023-07-13T15:14:26;17.37;80.49
66740;DHT22;53653;52.188;8.602;2023-07-13T15:16:54;17.32;81.70
66740;DHT22;53653;52.188;8.602;2023-07-13T15:19:21;17.37;81.82
66740;DHT22;53653;52.188;8.602;2023-07-13T15:21:49;17.45;81.80
66740;DHT22;53653;52.188;8.602;2023-07-13T15:24:15;17.52;80.91
66740;DHT22;53653;52.188;8.602;2023-07-13T15:26:42;17.45;80.69
66740;DHT22;53653;52.188;8.602;2023-07-13T15:29:11;17.51;81.19
66740;DHT22;53653;52.188;8.602;2023-07-13T15:31:36;17.55;80.61
66740;DHT22;53653;52.188;8.602;2023-07-13T15:34:10;17.47;81.61
66740;DHT22;53653;52.188;8.602;2023-07-13T15:36:36;17.58;81.36
66740;DHT22;53653;52.188;8.602;2023-07-13T15:39:02;17.62;81.31
66740;DHT22;53653;52.188;8.602;2023-07-13T15:41:28;17.68;81.36
66740;DHT22;53653;52.188;8.602;2023-07-13T15:43:56;17.68;80.97
66740;DHT22;53653;52.188;8.602;2023-07-13T15:46:25;17.69;81.41
66740;DHT22;53653;52.188;8.602;2023-07-13T15:48:53;17.68;81.76
66740;DHT22;53653;52.188;8.602;2023-07-13T15:51:28;17.75;81.94
66740;DHT22;53653;52.188;8.602;2023-07-13T15:53:56;17.87;82.77
66740;DHT22;53653;52.188;8.602;2023-07-13T15:56:27;17.82;82.34
66740;DHT22;53653;52.188;8.602;2023-07-13T15:58:54;17.78;82.25
66740;DHT22;53653;52.188;8.602;2023-07-13T16:01:21;17.81;81.32
66740;DHT22;53653;52.188;8.602;2023-07-13T16:03:47;17.97;80.99
66740;DHT22;53653;52.188;8.602;2023-07-13T16:08:41;18.14;80.99
66740;DHT22;53653;52.188;8.602;2023-07-13T16:11:15;18.27;79.52
66740;DHT22;53653;52.188;8.602;2023-07-13T16:13:42;18.38;79.22
66740;DHT22;53653;52.188;8.602;2023-07-13T16:16:11;18.61;79.61
66740;DHT22;53653;52.188;8.602;2023-07-13T16:18:36;18.68;77.96
66740;DHT22;53653;52.188;8.602;2023-07-13T16:21:02;18.74;77.95